Time;durP1;ratioP1;P1;durP2;ratioP2;P2;SDS_P1;SDS_P2;PMS_P1;PMS_P2;Temp;Humidity;BMP_temperature;BMP_pressure;BME280_temperature;BME280_humidity;BME280_pressure;Samples;Min_cycle;Max_cycle;Signal;HPM_P1;HPM_P2
2021/09/25 00:00:34;;;;;;;7.35;2.63;;;;;;;12.09;100.00;99612.00;6265805;28;20524;-72
2021/09/25 00:03:40;;;;;;;3.22;2.17;;;;;;;12.03;100.00;99602.91;6266024;28;20239;-72
2021/09/25 00:06:44;;;;;;;5.45;2.30;;;;;;;12.03;100.00;99602.91;6265736;28;20506;-72
2021/09/25 00:09:48;;;;;;;4.47;2.45;;;;;;;12.05;100.00;99610.84;6267015;28;20275;-72
2021/09/25 00:12:53;;;;;;;2.78;2.20;;;;;;;12.05;100.00;99606.19;6265508;28;20243;-72
2021/09/25 00:15:58;;;;;;;4.30;2.10;;;;;;;12.04;100.00;99609.19;6265400;28;20185;-72
2021/09/25 00:19:04;;;;;;;3.92;2.25;;;;;;;12.03;100.00;99619.31;6266708;28;20252;-71
2021/09/25 00:22:10;;;;;;;3.95;2.58;;;;;;;12.03;100.00;99622.03;6265256;28;20487;-72
2021/09/25 00:25:15;;;;;;;4.53;2.20;;;;;;;12.06;100.00;99613.34;6266347;28;20312;-72
2021/09/25 00:28:19;;;;;;;6.10;2.10;;;;;;;12.09;100.00;99612.81;6265180;28;20231;-72
2021/09/25 00:31:24;;;;;;;4.65;2.35;;;;;;;12.15;100.00;99622.72;6266566;28;20220;-73
2021/09/25 00:34:29;;;;;;;7.65;2.42;;;;;;;12.06;100.00;99618.81;6265490;28;20192;-72
2021/09/25 00:37:33;;;;;;;6.47;2.88;;;;;;;12.07;100.00;99614.97;6265015;28;20185;-71
2021/09/25 00:40:38;;;;;;;9.15;2.55;;;;;;;12.10;100.00;99614.47;6265891;28;20185;-72
2021/09/25 00:43:42;;;;;;;14.35;2.53;;;;;;;12.03;100.00;99619.31;6264801;28;20271;-72
2021/09/25 00:46:48;;;;;;;4.47;2.53;;;;;;;12.00;100.00;99619.81;6264895;28;20420;-72
2021/09/25 00:49:54;;;;;;;8.43;2.70;;;;;;;12.10;100.00;99630.84;6264752;28;20478;-72
2021/09/25 00:52:58;;;;;;;8.38;2.85;;;;;;;12.22;100.00;99623.34;6265936;28;20188;-72
2021/09/25 00:56:02;;;;;;;9.48;2.83;;;;;;;12.27;100.00;99637.09;6265910;28;20192;-71
2021/09/25 00:59:08;;;;;;;6.95;2.50;;;;;;;12.37;100.00;99631.72;6265490;28;20185;-72
2021/09/25 01:02:16;;;;;;;11.32;3.47;;;;;;;12.31;100.00;99631.91;6279061;22;20225;-72
2021/09/25 01:05:23;;;;;;;12.88;2.88;;;;;;;12.33;100.00;99641.50;6264677;28;20198;-72
2021/09/25 01:08:27;;;;;;;6.07;2.75;;;;;;;12.31;100.00;99643.69;6265644;28;20260;-73
2021/09/25 01:11:32;;;;;;;7.50;2.97;;;;;;;12.30;100.00;99635.75;6264426;28;20407;-71
2021/09/25 01:14:37;;;;;;;7.78;3.00;;;;;;;12.41;100.00;99638.31;6265376;28;20217;-71
2021/09/25 01:17:42;;;;;;;6.93;2.67;;;;;;;12.40;100.00;99642.13;6264345;28;20396;-72
2021/09/25 01:20:48;;;;;;;6.15;2.53;;;;;;;12.42;100.00;99640.00;6265593;28;20191;-71
2021/09/25 01:23:53;;;;;;;9.02;3.05;;;;;;;12.44;100.00;99636.97;6265411;28;20286;-72
2021/09/25 01:26:58;;;;;;;9.85;3.05;;;;;;;12.46;100.00;99641.09;6265087;28;20185;-71
2021/09/25 01:30:02;;;;;;;7.60;2.83;;;;;;;12.46;100.00;99638.38;6264213;28;20252;-71
2021/09/25 01:33:08;;;;;;;6.68;3.08;;;;;;;12.57;100.00;99648.34;6263853;28;20196;-71
2021/09/25 01:36:16;;;;;;;14.70;2.97;;;;;;;12.63;100.00;99645.66;6263935;28;20375;-72
2021/09/25 01:39:21;;;;;;;7.35;2.63;;;;;;;12.60;100.00;99652.47;6264439;28;20216;-72
2021/09/25 01:42:26;;;;;;;8.05;3.13;;;;;;;12.60;100.00;99657.13;6263673;28;20589;-71
2021/09/25 01:45:30;;;;;;;4.78;2.45;;;;;;;12.62;100.00;99650.31;6264793;28;20260;-72
2021/09/25 01:48:34;;;;;;;6.20;3.08;;;;;;;12.63;100.00;99656.59;6263515;28;20502;-72
2021/09/25 01:51:38;;;;;;;8.18;2.78;;;;;;;12.63;100.00;99667.53;6264640;28;20184;-72
2021/09/25 01:54:44;;;;;;;6.80;3.28;;;;;;;12.74;100.00;99674.75;6264956;28;20196;-72
2021/09/25 01:57:48;;;;;;;13.95;3.17;;;;;;;12.72;100.00;99671.44;6264748;28;20216;-72
2021/09/25 02:00:52;;;;;;;10.05;3.17;;;;;;;12.63;100.00;99675.75;6263946;28;20216;-72
2021/09/25 02:03:57;;;;;;;6.00;2.58;;;;;;;12.65;100.00;99681.78;6263591;28;20268;-72
2021/09/25 02:07:01;;;;;;;13.00;3.25;;;;;;;12.61;100.00;99691.63;6264152;28;20217;-72
2021/09/25 02:10:08;;;;;;;12.73;2.88;;;;;;;12.76;100.00;99678.09;6264074;28;20197;-72
2021/09/25 02:13:12;;;;;;;11.88;2.97;;;;;;;12.65;100.00;99682.63;6263395;28;20298;-71
2021/09/25 02:16:17;;;;;;;12.63;3.60;;;;;;;12.79;100.00;99683.84;6264236;28;20216;-72
2021/09/25 02:19:21;;;;;;;11.50;3.33;;;;;;;12.79;100.00;99688.50;6262555;28;20480;-72
2021/09/25 02:22:26;;;;;;;10.02;4.05;;;;;;;12.72;100.00;99682.41;6263663;28;20212;-72
2021/09/25 02:25:32;;;;;;;14.55;3.72;;;;;;;12.75;100.00;99692.84;6262818;28;20378;-72
2021/09/25 02:28:37;;;;;;;10.80;3.13;;;;;;;12.84;100.00;99697.56;6263996;28;20185;-71
2021/09/25 02:31:41;;;;;;;11.82;3.13;;;;;;;12.84;100.00;99691.31;6262808;28;20220;-72
2021/09/25 02:34:45;;;;;;;8.63;3.45;;;;;;;12.83;100.00;99701.41;6262873;28;20196;-72
2021/09/25 02:37:51;;;;;;;5.97;2.80;;;;;;;12.82;100.00;99699.75;6262435;28;20547;-72
2021/09/25 02:40:56;;;;;;;10.38;3.33;;;;;;;12.81;100.00;99698.13;6262628;28;20188;-72
2021/09/25 02:44:01;;;;;;;12.70;3.60;;;;;;;12.83;100.00;99706.06;6262073;28;20520;-72
2021/09/25 02:47:05;;;;;;;11.85;3.55;;;;;;;12.80;100.00;99703.84;6263630;28;20185;-72
2021/09/25 02:50:12;;;;;;;11.55;2.97;;;;;;;12.82;100.00;99712.59;6263205;28;20252;-72
2021/09/25 02:53:16;;;;;;;13.35;3.50;;;;;;;12.88;100.00;99719.78;6263417;28;20188;-72
2021/09/25 02:56:22;;;;;;;8.07;3.45;;;;;;;12.88;100.00;99708.84;6262108;28;20185;-72
2021/09/25 02:59:26;;;;;;;7.47;2.92;;;;;;;12.85;100.00;99714.81;6263055;28;20185;-72
2021/09/25 03:02:30;;;;;;;8.32;4.10;;;;;;;12.85;100.00;99723.03;6261925;28;20308;-72
2021/09/25 03:05:34;;;;;;;11.73;3.85;;;;;;;12.92;100.00;99720.91;6261951;28;20587;-72
2021/09/25 03:08:39;;;;;;;11.50;3.10;;;;;;;12.92;100.00;99720.91;6262218;28;20262;-72
2021/09/25 03:11:44;;;;;;;14.15;3.00;;;;;;;12.89;100.00;99733.22;6263191;28;20252;-72
2021/09/25 03:14:49;;;;;;;12.48;3.05;;;;;;;12.91;100.00;99724.75;6262766;28;20251;-72
2021/09/25 03:17:53;;;;;;;16.55;3.85;;;;;;;12.93;100.00;99739.00;6262719;28;20252;-72
2021/09/25 03:20:57;;;;;;;8.25;3.33;;;;;;;12.93;100.00;99728.06;6263086;28;20239;-72
2021/09/25 03:24:01;;;;;;;11.73;3.50;;;;;;;12.99;100.00;99743.47;6262360;28;20290;-72
2021/09/25 03:27:06;;;;;;;12.13;3.15;;;;;;;12.98;100.00;99737.16;6261627;28;20201;-72
2021/09/25 03:30:14;;;;;;;7.18;2.95;;;;;;;13.04;100.00;99752.56;6262360;28;20184;-72
2021/09/25 03:33:18;;;;;;;9.48;3.30;;;;;;;13.02;100.00;99764.81;6262972;28;20188;-72
2021/09/25 03:36:22;;;;;;;14.80;4.10;;;;;;;13.04;100.00;99762.66;6262576;28;20220;-72
2021/09/25 03:39:26;;;;;;;7.82;3.05;;;;;;;12.98;100.00;99769.16;6261867;28;20255;-72
2021/09/25 03:42:32;;;;;;;10.30;3.17;;;;;;;12.98;100.00;99769.16;6261381;28;20220;-72
2021/09/25 03:45:36;;;;;;;18.23;3.88;;;;;;;13.00;100.00;99761.50;6262101;28;20278;-72
2021/09/25 03:48:40;;;;;;;10.73;3.15;;;;;;;12.89;100.00;99781.69;6262329;28;20192;-72
2021/09/25 03:51:44;;;;;;;12.90;2.90;;;;;;;12.92;100.00;99776.50;6262717;28;20185;-72
2021/09/25 03:54:48;;;;;;;9.13;3.25;;;;;;;12.81;100.00;99784.88;6261298;28;20394;-72
2021/09/25 03:57:55;;;;;;;12.02;3.45;;;;;;;12.91;100.00;99785.81;6261263;28;20418;-72
2021/09/25 04:01:00;;;;;;;12.20;3.28;;;;;;;12.85;100.00;99796.94;6262191;28;20271;-72
2021/09/25 04:04:05;;;;;;;9.60;3.40;;;;;;;12.81;100.00;99801.28;6262054;28;20535;-72
2021/09/25 04:07:09;;;;;;;14.43;3.78;;;;;;;12.89;100.00;99809.84;6262201;28;20307;-72
2021/09/25 04:10:15;;;;;;;7.70;2.85;;;;;;;12.80;100.00;99810.56;6262210;28;20208;-72
2021/09/25 04:13:21;;;;;;;12.73;3.78;;;;;;;12.82;100.00;99813.88;6262317;28;20185;-72
2021/09/25 04:16:27;;;;;;;12.35;2.92;;;;;;;12.75;100.00;99824.19;6262465;28;20192;-72
2021/09/25 04:19:31;;;;;;;9.57;2.97;;;;;;;12.75;100.00;99827.78;6261002;28;20263;-72
2021/09/25 04:22:35;;;;;;;11.35;3.30;;;;;;;12.72;100.00;99838.38;6260946;28;20413;-72
2021/09/25 04:25:39;;;;;;;11.05;3.25;;;;;;;12.71;100.00;99850.44;6261301;28;20212;-72
2021/09/25 04:28:45;;;;;;;8.60;2.83;;;;;;;12.66;100.00;99853.09;6262296;28;20224;-72
2021/09/25 04:31:49;;;;;;;10.25;3.20;;;;;;;12.68;100.00;99864.63;6261846;28;20185;-72
2021/09/25 04:34:54;;;;;;;9.18;2.97;;;;;;;12.65;100.00;99876.91;6262123;28;20193;-72
2021/09/25 04:37:59;;;;;;;9.70;3.22;;;;;;;12.77;100.00;99883.06;6261373;28;20255;-72
2021/09/25 04:41:04;;;;;;;8.93;3.30;;;;;;;12.69;100.00;99874.47;6262954;28;20185;-72
2021/09/25 04:44:14;;;;;;;11.52;2.80;;;;;;;12.78;100.00;99878.44;6266484;28;20208;-72
2021/09/25 04:47:18;;;;;;;13.18;3.53;;;;;;;12.83;100.00;99886.72;6265086;28;20382;-72
2021/09/25 04:50:24;;;;;;;9.80;3.10;;;;;;;12.75;100.00;99878.94;6264991;28;20409;-72
2021/09/25 04:53:30;;;;;;;8.82;3.20;;;;;;;12.79;100.00;99885.56;6265752;28;20263;-72
2021/09/25 04:56:34;;;;;;;16.35;3.63;;;;;;;12.87;100.00;99888.66;6266289;28;20185;-72
2021/09/25 04:59:40;;;;;;;7.78;2.85;;;;;;;12.91;100.00;99889.00;6264784;28;20550;-72
2021/09/25 05:02:46;;;;;;;13.90;3.47;;;;;;;12.86;100.00;99891.69;6265603;28;20224;-72
2021/09/25 05:05:51;;;;;;;10.75;3.13;;;;;;;12.82;100.00;99902.28;6265622;28;20220;-72
2021/09/25 05:08:55;;;;;;;7.13;2.45;;;;;;;12.80;100.00;99898.16;6265975;28;20230;-72
2021/09/25 05:11:59;;;;;;;10.35;3.00;;;;;;;12.78;100.00;99901.16;6265587;28;20379;-72
2021/09/25 05:15:06;;;;;;;10.18;3.10;;;;;;;12.69;100.00;99918.25;6265835;28;20204;-72
2021/09/25 05:18:14;;;;;;;13.88;3.38;;;;;;;12.58;100.00;99915.38;6264404;28;20185;-72
2021/09/25 05:21:19;;;;;;;5.97;2.75;;;;;;;12.67;100.00;99917.69;6265411;28;20230;-72
2021/09/25 05:24:23;;;;;;;7.57;2.90;;;;;;;12.75;100.00;99923.56;6265249;28;20219;-72
2021/09/25 05:27:28;;;;;;;15.55;2.70;;;;;;;12.70;100.00;99928.13;6265681;28;20184;-72
2021/09/25 05:30:33;;;;;;;7.95;2.65;;;;;;;12.76;100.00;99935.34;6264145;28;20476;-72
2021/09/25 05:33:37;;;;;;;10.77;2.83;;;;;;;12.78;100.00;99933.16;6264739;28;20185;-72
2021/09/25 05:36:41;;;;;;;8.45;2.95;;;;;;;12.79;100.00;99934.84;6264398;28;20441;-71
2021/09/25 05:39:46;;;;;;;13.20;3.17;;;;;;;12.74;100.00;99932.84;6263818;28;20380;-72
2021/09/25 05:42:50;;;;;;;13.45;3.35;;;;;;;12.63;100.00;99942.00;6264019;28;20185;-72
2021/09/25 05:45:56;;;;;;;13.02;3.15;;;;;;;12.63;100.00;99946.66;6264979;28;20278;-72
2021/09/25 05:49:00;;;;;;;4.97;2.70;;;;;;;12.56;100.00;99949.53;6263624;28;20185;-72
2021/09/25 05:52:08;;;;;;;10.15;2.70;;;;;;;12.57;100.00;99960.25;6262792;28;20200;-72
2021/09/25 05:55:13;;;;;;;7.78;3.28;;;;;;;12.67;100.00;99947.78;6264478;28;20216;-72
2021/09/25 05:58:17;;;;;;;8.65;3.35;;;;;;;12.69;99.68;99962.03;6263332;28;20184;-72
2021/09/25 06:01:23;;;;;;;4.10;2.70;;;;;;;12.68;99.96;99965.88;6263321;28;20460;-72
2021/09/25 06:04:27;;;;;;;12.30;2.95;;;;;;;12.63;99.64;99968.53;6263470;28;20240;-72
2021/09/25 06:07:32;;;;;;;8.52;3.10;;;;;;;12.64;99.94;99975.66;6264248;28;20181;-72
2021/09/25 06:10:37;;;;;;;9.90;3.13;;;;;;;12.55;99.02;99984.31;6263183;28;20503;-72
2021/09/25 06:13:41;;;;;;;7.35;2.70;;;;;;;12.54;99.52;99988.13;6263480;28;20208;-72
2021/09/25 06:16:47;;;;;;;7.45;2.70;;;;;;;12.52;99.61;99995.75;6262734;28;20459;-72
2021/09/25 06:19:52;;;;;;;6.50;2.72;;;;;;;12.54;99.65;100015.47;6264178;28;20191;-72
2021/09/25 06:22:57;;;;;;;6.03;2.28;;;;;;;12.57;99.13;100020.44;6263067;28;20477;-72
2021/09/25 06:26:03;;;;;;;7.32;2.50;;;;;;;12.50;98.69;100030.75;6263628;28;20216;-71
2021/09/25 06:29:08;;;;;;;5.63;2.53;;;;;;;12.54;97.96;100026.41;6264011;28;20192;-73
2021/09/25 06:32:14;;;;;;;7.70;3.10;;;;;;;12.53;98.58;100030.22;6263975;28;20185;-72
2021/09/25 06:35:20;;;;;;;10.32;2.80;;;;;;;12.63;97.21;100042.41;6262573;28;20362;-71
2021/09/25 06:38:24;;;;;;;7.07;2.40;;;;;;;12.74;97.06;100046.94;6263114;28;20192;-71
2021/09/25 06:41:28;;;;;;;6.40;2.67;;;;;;;12.73;95.45;100056.25;6262753;28;20184;-72
2021/09/25 06:44:32;;;;;;;2.80;2.30;;;;;;;12.85;95.20;100060.56;6262607;28;20251;-72
2021/09/25 06:47:38;;;;;;;6.10;2.38;;;;;;;12.73;94.68;100061.72;6263497;28;20214;-72
2021/09/25 06:50:42;;;;;;;6.95;2.33;;;;;;;12.84;94.65;100074.50;6262257;28;20546;-72
2021/09/25 06:53:46;;;;;;;7.38;2.42;;;;;;;12.86;93.66;100066.88;6263446;28;20192;-72
2021/09/25 06:56:50;;;;;;;10.52;2.72;;;;;;;12.89;93.42;100077.31;6262656;28;20197;-72
2021/09/25 06:59:54;;;;;;;15.13;4.90;;;;;;;12.83;91.93;100072.84;6263027;28;20185;-72
2021/09/25 07:03:00;;;;;;;16.23;4.03;;;;;;;12.84;92.53;100064.38;6261821;28;20230;-71
2021/09/25 07:06:04;;;;;;;12.48;4.45;;;;;;;12.89;91.59;100066.38;6261654;28;20208;-71
2021/09/25 07:09:09;;;;;;;17.70;4.70;;;;;;;12.87;91.75;100065.78;6262209;28;20185;-72
2021/09/25 07:12:13;;;;;;;17.65;5.95;;;;;;;12.85;91.66;100081.63;6263081;28;20189;-71
2021/09/25 07:15:17;;;;;;;9.45;4.15;;;;;;;12.84;91.01;100096.41;6261690;28;20189;-72
2021/09/25 07:18:23;;;;;;;4.97;2.45;;;;;;;12.92;89.68;100098.69;6262911;28;20192;-72
2021/09/25 07:21:27;;;;;;;5.13;2.38;;;;;;;12.95;88.81;100098.22;6261649;28;20390;-71
2021/09/25 07:24:31;;;;;;;8.32;2.30;;;;;;;12.98;89.28;100103.19;6262597;28;20238;-72
2021/09/25 07:27:35;;;;;;;7.35;2.40;;;;;;;12.96;88.46;100105.34;6262500;28;20219;-72
2021/09/25 07:30:48;;;;;;;8.10;2.30;;;;;;;12.96;88.01;100111.66;6261258;28;20405;-72
2021/09/25 07:33:54;;;;;;;4.55;2.25;;;;;;;12.79;87.84;100116.28;6262452;28;20192;-71
2021/09/25 07:36:58;;;;;;;5.40;2.20;;;;;;;12.86;88.10;100132.56;6262203;28;20189;-72
2021/09/25 07:40:05;;;;;;;5.30;2.45;;;;;;;12.80;88.81;100139.03;6262120;28;20185;-71
2021/09/25 07:43:09;;;;;;;4.72;2.40;;;;;;;12.86;89.51;100149.84;6262213;28;20185;-71
2021/09/25 07:46:13;;;;;;;5.65;1.90;;;;;;;12.80;86.04;100158.19;6262438;28;20319;-71
2021/09/25 07:49:19;;;;;;;8.07;2.30;;;;;;;12.89;86.24;100154.78;6261119;28;20251;-71
2021/09/25 07:52:23;;;;;;;5.10;2.05;;;;;;;12.94;85.00;100162.28;6262278;28;20185;-71
2021/09/25 07:55:28;;;;;;;4.20;2.10;;;;;;;12.93;83.48;100177.88;6261194;28;20381;-72
2021/09/25 07:58:32;;;;;;;2.05;1.80;;;;;;;13.04;81.83;100184.34;6261155;28;20224;-72
2021/09/25 08:01:36;;;;;;;4.88;2.03;;;;;;;13.06;83.16;100182.19;6262029;28;20208;-72
2021/09/25 08:04:42;;;;;;;4.28;2.08;;;;;;;13.02;79.47;100187.31;6261117;28;20239;-71
2021/09/25 08:07:47;;;;;;;2.70;1.67;;;;;;;13.11;79.68;100198.72;6261994;28;20220;-72
2021/09/25 08:10:51;;;;;;;4.38;1.98;;;;;;;13.03;82.39;100205.41;6261694;28;20193;-71
2021/09/25 08:13:55;;;;;;;2.80;1.70;;;;;;;13.06;81.83;100210.44;6260945;28;20491;-72
2021/09/25 08:16:59;;;;;;;2.05;1.85;;;;;;;13.03;81.29;100221.00;6264609;28;20193;-72
2021/09/25 08:20:08;;;;;;;4.00;1.50;;;;;;;13.07;78.65;100222.22;6265629;28;20356;-71
2021/09/25 08:23:17;;;;;;;3.90;1.88;;;;;;;13.00;78.53;100232.47;6266010;28;20185;-74
2021/09/25 08:26:21;;;;;;;3.70;1.60;;;;;;;13.12;79.21;100225.06;6265486;28;20606;-72
2021/09/25 08:29:25;;;;;;;4.22;2.13;;;;;;;13.11;80.05;100228.84;6265753;28;20299;-72
2021/09/25 08:32:33;;;;;;;2.83;1.80;;;;;;;13.00;80.11;100243.41;6265226;28;20491;-72
2021/09/25 08:35:39;;;;;;;2.80;1.75;;;;;;;13.02;78.27;100231.13;6266266;28;20223;-72
2021/09/25 08:38:43;;;;;;;4.03;1.70;;;;;;;13.17;78.39;100230.63;6265708;28;20251;-74
2021/09/25 08:41:47;;;;;;;3.22;1.80;;;;;;;13.09;76.29;100236.50;6265062;28;20185;-73
2021/09/25 08:44:53;;;;;;;6.40;1.77;;;;;;;13.25;76.86;100241.13;6266430;28;20291;-73
2021/09/25 08:47:58;;;;;;;2.20;1.60;;;;;;;13.27;76.52;100255.44;6265646;28;20217;-73
2021/09/25 08:51:04;;;;;;;3.03;1.95;;;;;;;13.27;77.54;100266.38;6264951;28;20407;-72
2021/09/25 08:54:08;;;;;;;2.70;1.50;;;;;;;13.10;76.03;100271.00;6266027;28;20191;-73
2021/09/25 08:57:13;;;;;;;7.32;1.63;;;;;;;13.23;75.99;100273.44;6265709;28;20235;-73
2021/09/25 09:00:33;;;;;;;1.80;1.50;;;;;;;13.26;76.02;100272.94;6265925;28;20245;-72
2021/09/25 09:03:40;;;;;;;1.95;1.58;;;;;;;13.22;76.50;100274.53;6264568;28;20424;-73
2021/09/25 09:06:49;;;;;;;2.13;1.58;;;;;;;13.18;75.72;100289.78;6264402;28;20283;-73
2021/09/25 09:09:54;;;;;;;2.75;1.70;;;;;;;13.21;77.49;100293.94;6264457;28;20456;-73
2021/09/25 09:12:58;;;;;;;2.90;1.60;;;;;;;13.15;74.63;100291.09;6264288;28;20216;-73
2021/09/25 09:16:04;;;;;;;2.35;1.75;;;;;;;13.25;73.38;100293.19;6264268;28;20551;-73
2021/09/25 09:19:09;;;;;;;2.90;1.70;;;;;;;13.25;75.88;100290.44;6265378;28;20252;-73
2021/09/25 09:22:19;;;;;;;2.25;1.98;;;;;;;13.24;76.97;100307.13;6265324;28;20192;-73
2021/09/25 09:25:25;;;;;;;3.05;1.63;;;;;;;13.22;74.86;100307.41;6264279;28;20185;-72
2021/09/25 09:28:31;;;;;;;2.30;1.80;;;;;;;13.20;75.24;100328.69;6264215;28;20216;-72
2021/09/25 09:31:36;;;;;;;4.30;1.73;;;;;;;13.25;73.89;100339.75;6263767;28;20448;-72
2021/09/25 09:34:41;;;;;;;4.60;1.77;;;;;;;13.23;76.59;100352.88;6263899;28;20481;-73
2021/09/25 09:37:47;;;;;;;3.45;1.90;;;;;;;13.33;74.67;100349.50;6265006;28;20303;-73
2021/09/25 09:40:52;;;;;;;2.05;1.90;;;;;;;13.31;74.78;100355.22;6265021;28;20221;-73
2021/09/25 09:43:58;;;;;;;2.75;1.65;;;;;;;13.38;74.62;100366.03;6263861;28;20191;-73
2021/09/25 09:47:05;;;;;;;8.52;1.70;;;;;;;13.33;76.76;100374.97;6264393;28;20209;-73
2021/09/25 09:50:12;;;;;;;1.90;1.80;;;;;;;13.34;74.02;100376.66;6264398;28;20185;-72
2021/09/25 09:53:17;;;;;;;2.03;1.77;;;;;;;13.36;74.29;100379.97;6263687;28;20216;-73
2021/09/25 09:56:24;;;;;;;1.45;1.35;;;;;;;13.55;72.15;100378.69;6263192;28;20185;-73
2021/09/25 09:59:30;;;;;;;2.35;1.90;;;;;;;13.51;74.17;100388.47;6264342;28;20224;-73
2021/09/25 10:02:37;;;;;;;5.80;1.90;;;;;;;13.50;73.23;100397.78;6263958;28;20229;-72
2021/09/25 10:05:44;;;;;;;4.07;1.63;;;;;;;13.53;71.25;100402.72;6263704;28;20276;-72
2021/09/25 10:08:50;;;;;;;2.97;1.75;;;;;;;13.58;73.56;100421.22;6263329;28;20215;-72
2021/09/25 10:11:57;;;;;;;3.58;1.58;;;;;;;13.72;72.13;100417.91;6262935;28;20185;-72
2021/09/25 10:15:02;;;;;;;2.20;1.60;;;;;;;13.67;71.16;100415.06;6262897;28;20270;-72
2021/09/25 10:18:08;;;;;;;2.75;1.90;;;;;;;13.74;72.34;100417.63;6264114;28;20196;-71
2021/09/25 10:21:15;;;;;;;2.33;2.13;;;;;;;13.82;70.88;100418.06;6262707;28;20469;-71
2021/09/25 10:24:25;;;;;;;3.92;1.92;;;;;;;13.79;70.98;100428.69;6263607;28;20264;-72
2021/09/25 10:27:33;;;;;;;3.47;1.92;;;;;;;13.88;69.42;100426.38;6263798;28;20272;-72
2021/09/25 10:30:37;;;;;;;2.22;2.00;;;;;;;13.96;69.03;100445.16;6262835;28;20224;-72
2021/09/25 10:33:42;;;;;;;3.05;1.50;;;;;;;13.95;70.09;100443.50;6262273;28;20473;-72
2021/09/25 10:36:51;;;;;;;1.63;1.52;;;;;;;14.08;71.14;100454.16;6262802;28;20252;-72
2021/09/25 10:39:58;;;;;;;2.13;1.88;;;;;;;14.14;69.48;100448.50;6263165;28;20195;-72
2021/09/25 10:43:16;;;;;;;8.35;2.13;;;;;;;14.19;70.35;100461.47;6263127;28;20184;-72
2021/09/25 10:46:21;;;;;;;1.65;1.55;;;;;;;14.26;69.88;100453.91;6262028;28;20556;-72
2021/09/25 10:49:25;;;;;;;12.75;1.80;;;;;;;14.37;69.47;100458.50;6262063;28;20390;-73
2021/09/25 10:52:43;;;;;;;2.47;1.85;;;;;;;14.43;69.00;100471.22;6262003;28;20207;-73
2021/09/25 10:55:51;;;;;;;3.63;1.58;;;;;;;14.43;69.16;100473.97;6263229;28;20185;-73
2021/09/25 10:58:59;;;;;;;3.15;1.60;;;;;;;14.58;68.37;100476.13;6262708;28;20189;-72
2021/09/25 11:02:03;;;;;;;2.10;1.98;;;;;;;14.61;67.17;100487.41;6262741;28;20204;-73
2021/09/25 11:05:09;;;;;;;3.35;1.77;;;;;;;14.65;66.79;100488.59;6262568;28;20185;-72
2021/09/25 11:08:15;;;;;;;1.58;1.50;;;;;;;14.66;65.67;100484.72;6262897;28;20215;-72
2021/09/25 11:11:32;;;;;;;1.92;1.40;;;;;;;14.69;65.96;100484.22;6262729;28;20262;-72
2021/09/25 11:14:45;;;;;;;1.30;1.30;;;;;;;14.72;65.43;100494.72;6262844;28;20185;-73
2021/09/25 11:17:49;;;;;;;1.50;1.40;;;;;;;14.85;66.30;100499.03;6261559;28;20255;-73
2021/09/25 11:21:01;;;;;;;4.93;1.70;;;;;;;14.89;65.87;100502.94;6261391;28;20464;-72
2021/09/25 11:24:10;;;;;;;4.43;1.42;;;;;;;14.93;65.27;100510.41;6262207;28;20185;-71
2021/09/25 11:27:19;;;;;;;1.40;1.30;;;;;;;15.00;66.20;100502.81;6262342;28;20216;-72
2021/09/25 11:30:25;;;;;;;1.27;1.27;;;;;;;15.01;65.45;100515.47;6262678;28;20213;-71
2021/09/25 11:33:30;;;;;;;1.50;1.50;;;;;;;15.10;65.97;100509.53;6261237;28;20502;-71
2021/09/25 11:36:35;;;;;;;2.22;1.40;;;;;;;15.14;65.14;100525.25;6261188;28;20415;-71
2021/09/25 11:39:44;;;;;;;2.92;1.42;;;;;;;15.22;64.69;100537.72;6262547;28;20195;-72
2021/09/25 11:42:52;;;;;;;1.27;1.27;;;;;;;15.25;65.41;100549.06;6261760;28;20192;-72
2021/09/25 11:45:58;;;;;;;3.42;1.42;;;;;;;15.25;63.88;100559.22;6261086;28;20373;-72
2021/09/25 11:49:02;;;;;;;3.20;1.40;;;;;;;15.17;63.61;100567.88;6262339;28;20247;-72
2021/09/25 11:52:07;;;;;;;1.25;1.25;;;;;;;15.17;65.44;100585.22;6265793;28;20369;-72
2021/09/25 11:55:13;;;;;;;1.27;1.17;;;;;;;15.15;61.04;100575.56;6266931;28;20185;-72
2021/09/25 11:58:20;;;;;;;1.33;1.33;;;;;;;15.25;60.58;100582.03;6266779;28;20188;-72
2021/09/25 12:01:24;;;;;;;3.17;1.20;;;;;;;15.23;60.64;100586.13;6266906;28;20232;-72
2021/09/25 12:04:40;;;;;;;1.17;1.05;;;;;;;15.33;60.99;100594.50;6266407;28;20236;-72
2021/09/25 12:07:45;;;;;;;0.90;0.90;;;;;;;15.31;60.10;100581.00;6266921;28;20217;-72
2021/09/25 12:10:52;;;;;;;2.70;1.33;;;;;;;15.33;60.58;100583.50;6265447;28;20644;-71
2021/09/25 12:13:57;;;;;;;1.00;1.00;;;;;;;15.44;59.43;100599.03;6266217;28;20192;-71
2021/09/25 12:17:02;;;;;;;4.13;1.05;;;;;;;15.43;60.79;100600.13;6265990;28;20192;-71
2021/09/25 12:20:17;;;;;;;1.90;1.05;;;;;;;15.50;58.60;100603.56;6265401;28;20215;-71
2021/09/25 12:23:24;;;;;;;1.17;1.02;;;;;;;15.49;58.89;100602.72;6264931;28;20189;-72
2021/09/25 12:26:33;;;;;;;1.05;1.02;;;;;;;15.57;56.36;100610.53;6265320;28;20237;-72
2021/09/25 12:29:42;;;;;;;1.00;1.00;;;;;;;15.65;55.81;100621.09;6265301;28;20588;-72
2021/09/25 12:33:00;;;;;;;1.00;1.00;;;;;;;15.59;56.30;100616.59;6265002;28;20193;-71
2021/09/25 12:36:08;;;;;;;2.45;0.95;;;;;;;15.71;57.05;100627.50;6265002;28;20716;-72
2021/09/25 12:39:14;;;;;;;2.85;1.10;;;;;;;15.63;58.45;100622.44;6265505;28;20193;-72
2021/09/25 12:42:26;;;;;;;0.98;0.90;;;;;;;15.64;55.45;100638.66;6264752;28;20224;-72
2021/09/25 12:45:32;;;;;;;3.53;1.20;;;;;;;15.70;56.99;100642.31;6264653;28;20504;-72
2021/09/25 12:48:54;;;;;;;1.10;1.00;;;;;;;15.68;54.27;100636.25;6265807;28;20184;-72
2021/09/25 12:52:01;;;;;;;1.02;0.80;;;;;;;15.80;56.15;100653.44;6265173;28;20185;-72
2021/09/25 12:55:09;;;;;;;0.73;0.73;;;;;;;15.91;53.61;100658.00;6265854;28;20197;-72
2021/09/25 12:58:17;;;;;;;0.88;0.85;;;;;;;15.91;52.99;100660.75;6264243;28;20429;-71
2021/09/25 13:01:28;;;;;;;1.50;1.35;;;;;;;16.01;53.40;100671.03;6265393;28;20255;-71
2021/09/25 13:04:39;;;;;;;0.70;0.70;;;;;;;15.95;54.64;100675.66;6265147;28;20264;-71
2021/09/25 13:07:43;;;;;;;0.70;0.70;;;;;;;15.99;52.82;100676.81;6265489;28;20216;-71
2021/09/25 13:10:49;;;;;;;0.60;0.60;;;;;;;16.02;53.74;100687.28;6265423;28;20266;-72
2021/09/25 13:14:08;;;;;;;0.70;0.70;;;;;;;15.99;51.85;100698.84;6264595;28;20531;-72
2021/09/25 13:17:15;;;;;;;0.70;0.70;;;;;;;16.01;52.68;100702.16;6265421;28;20185;-71
2021/09/25 13:20:22;;;;;;;3.83;0.95;;;;;;;16.05;54.46;100692.28;6264330;28;20189;-72
2021/09/25 13:23:28;;;;;;;0.60;0.60;;;;;;;16.04;52.73;100695.31;6265121;28;20189;-72
2021/09/25 13:26:33;;;;;;;1.35;0.80;;;;;;;16.09;51.55;100698.97;6265058;28;20252;-72
2021/09/25 13:29:39;;;;;;;3.42;0.68;;;;;;;16.16;52.94;100710.59;6265083;28;20219;-72
2021/09/25 13:32:44;;;;;;;0.90;0.90;;;;;;;16.47;52.63;100727.47;6264526;28;20208;-73
2021/09/25 13:35:49;;;;;;;0.60;0.60;;;;;;;17.38;50.41;100724.50;6264188;28;20185;-72
2021/09/25 13:38:53;;;;;;;4.60;1.08;;;;;;;17.89;49.21;100719.34;6264237;28;20223;-72
2021/09/25 13:41:58;;;;;;;1.17;1.08;;;;;;;17.81;50.28;100720.69;6263654;28;20263;-72
2021/09/25 13:45:03;;;;;;;2.25;1.50;;;;;;;17.50;50.47;100738.13;6264471;28;20260;-73
2021/09/25 13:48:12;;;;;;;0.82;0.82;;;;;;;17.24;52.49;100745.34;6264455;28;20192;-73
2021/09/25 13:51:16;;;;;;;1.00;1.00;;;;;;;17.02;54.07;100752.88;6264704;28;20209;-73
2021/09/25 13:54:20;;;;;;;1.15;1.10;;;;;;;17.08;52.94;100749.06;6264820;28;20192;-72
2021/09/25 13:57:24;;;;;;;7.53;0.90;;;;;;;16.85;54.08;100754.91;6263157;28;20248;-73
2021/09/25 14:00:29;;;;;;;2.92;1.00;;;;;;;16.76;55.09;100759.22;6264622;28;20189;-72
2021/09/25 14:03:35;;;;;;;0.80;0.80;;;;;;;16.72;55.83;100775.44;6263885;28;20419;-72
2021/09/25 14:06:40;;;;;;;1.00;1.00;;;;;;;16.82;54.09;100769.19;6263019;28;20185;-72
2021/09/25 14:09:44;;;;;;;2.80;1.00;;;;;;;16.97;54.43;100768.53;6264446;28;20240;-72
2021/09/25 14:12:48;;;;;;;1.00;1.00;;;;;;;16.71;57.21;100783.97;6262368;28;20408;-72
2021/09/25 14:15:52;;;;;;;0.93;0.90;;;;;;;16.97;55.60;100799.69;6263950;28;20252;-73
2021/09/25 14:18:58;;;;;;;2.00;1.05;;;;;;;16.81;54.31;100797.84;6262747;28;20375;-73
2021/09/25 14:22:03;;;;;;;1.67;0.80;;;;;;;16.67;54.01;100802.09;6264259;28;20197;-74